Time;durP1;ratioP1;P1;durP2;ratioP2;P2;SDS_P1;SDS_P2;PMS_P1;PMS_P2;Temp;Humidity;BMP_temperature;BMP_pressure;BME280_temperature;BME280_humidity;BME280_pressure;Samples;Min_cycle;Max_cycle;Signal;HPM_P1;HPM_P2
2022/06/15 00:02:21;;;;;;;;;;;;;;;;;;5010103;28;19939;-80
2022/06/15 00:04:47;;;;;;;;;;;;;;;;;;5024923;28;20323;-78
2022/06/15 00:07:12;;;;;;;;;;;;;;;;;;5035557;28;19917;-78
2022/06/15 00:09:37;;;;;;;;;;;;;;;;;;5020363;28;20372;-77
2022/06/15 00:12:04;;;;;;;;;;;;;;;;;;5024272;28;20292;-78
2022/06/15 00:14:29;;;;;;;;;;;;;;;;;;5053036;28;20020;-78
2022/06/15 00:16:55;;;;;;;;;;;;;;;;;;5039345;28;20365;-79
2022/06/15 00:19:20;;;;;;;;;;;;;;;;;;5033007;28;20011;-80
2022/06/15 00:21:45;;;;;;;;;;;;;;;;;;5039951;28;19913;-80
2022/06/15 00:24:11;;;;;;;;;;;;;;;;;;5073953;22;19924;-76
2022/06/15 00:26:36;;;;;;;;;;;;;;;;;;5067342;28;19912;-77
2022/06/15 00:29:02;;;;;;;;;;;;;;;;;;5089558;28;19919;-75
2022/06/15 00:31:27;;;;;;;;;;;;;;;;;;5072025;28;19920;-76
2022/06/15 00:33:53;;;;;;;;;;;;;;;;;;5079679;28;19957;-76
2022/06/15 00:36:18;;;;;;;;;;;;;;;;;;5055316;28;20379;-75
2022/06/15 00:38:44;;;;;;;;;;;;;;;;;;5074857;28;19951;-75
2022/06/15 00:41:09;;;;;;;;;;;;;;;;;;5059149;28;20369;-77
2022/06/15 00:43:35;;;;;;;;;;;;;;;;;;5055797;28;20378;-76
2022/06/15 00:46:08;;;;;;;;;;;;;;;;;;5080991;28;20339;-75
2022/06/15 00:48:33;;;;;;;;;;;;;;;;;;5075379;28;19985;-75
2022/06/15 00:50:59;;;;;;;;;;;;;;;;;;5058879;28;19959;-75
2022/06/15 00:53:24;;;;;;;;;;;;;;;;;;5057345;28;19913;-75
2022/06/15 00:55:51;;;;;;;;;;;;;;;;;;5055489;28;19920;-75
2022/06/15 00:58:17;;;;;;;;;;;;;;;;;;5090792;28;19912;-74
2022/06/15 01:00:42;;;;;;;;;;;;;;;;;;5041977;28;20347;-75
2022/06/15 01:03:08;;;;;;;;;;;;;;;;;;5038622;28;19970;-75
2022/06/15 01:05:34;;;;;;;;;;;;;;;;;;5055753;28;20359;-74
2022/06/15 01:07:59;;;;;;;;;;;;;;;;;;5058522;28;20287;-74
2022/06/15 01:10:25;;;;;;;;;;;;;;;;;;5073449;28;20151;-75
2022/06/15 01:12:51;;;;;;;;;;;;;;;;;;5092916;28;19912;-77
2022/06/15 01:15:16;;;;;;;;;;;;;;;;;;5056747;28;19938;-77
2022/06/15 01:17:41;;;;;;;;;;;;;;;;;;5054792;28;20359;-76
2022/06/15 01:20:10;;;;;;;;;;;;;;;;;;5081781;28;19989;-76
2022/06/15 01:22:39;;;;;;;;;;;;;;;;;;5038740;28;19916;-76
2022/06/15 01:25:04;;;;;;;;;;;;;;;;;;5060612;28;19961;-76
2022/06/15 01:27:33;;;;;;;;;;;;;;;;;;5059915;28;19951;-75
2022/06/15 01:29:58;;;;;;;;;;;;;;;;;;5077491;28;19912;-76
2022/06/15 01:32:23;;;;;;;;;;;;;;;;;;5095762;28;19919;-76
2022/06/15 01:34:49;;;;;;;;;;;;;;;;;;5061751;28;19912;-75
2022/06/15 01:37:17;;;;;;;;;;;;;;;;;;5058601;28;19952;-75
2022/06/15 01:39:43;;;;;;;;;;;;;;;;;;5093039;28;19966;-74
2022/06/15 01:42:09;;;;;;;;;;;;;;;;;;5074696;28;19978;-75
2022/06/15 01:44:35;;;;;;;;;;;;;;;;;;5053068;28;20387;-76
2022/06/15 01:47:00;;;;;;;;;;;;;;;;;;5072600;28;20271;-75
2022/06/15 01:49:25;;;;;;;;;;;;;;;;;;5057976;28;19954;-75
2022/06/15 01:51:51;;;;;;;;;;;;;;;;;;5074635;28;20014;-74
2022/06/15 01:54:16;;;;;;;;;;;;;;;;;;5061435;28;19924;-75
2022/06/15 01:56:42;;;;;;;;;;;;;;;;;;5073105;28;20423;-76
2022/06/15 01:59:11;;;;;;;;;;;;;;;;;;5077234;28;19919;-75
2022/06/15 02:01:37;;;;;;;;;;;;;;;;;;5076923;28;19916;-75
2022/06/15 02:04:02;;;;;;;;;;;;;;;;;;5079813;28;20299;-76
2022/06/15 02:06:28;;;;;;;;;;;;;;;;;;5078846;28;19920;-75
2022/06/15 02:08:54;;;;;;;;;;;;;;;;;;5059553;28;19919;-75
2022/06/15 02:11:24;;;;;;;;;;;;;;;;;;5075215;28;19912;-76
2022/06/15 02:13:49;;;;;;;;;;;;;;;;;;5054565;28;19959;-75
2022/06/15 02:16:16;;;;;;;;;;;;;;;;;;5057178;28;20282;-75
2022/06/15 02:18:41;;;;;;;;;;;;;;;;;;5052724;28;19923;-76
2022/06/15 02:21:07;;;;;;;;;;;;;;;;;;5074643;28;20383;-76
2022/06/15 02:23:32;;;;;;;;;;;;;;;;;;5073764;28;19970;-76
2022/06/15 02:26:06;;;;;;;;;;;;;;;;;;5074296;28;20356;-75
2022/06/15 02:28:32;;;;;;;;;;;;;;;;;;5054000;28;19912;-76
2022/06/15 02:30:57;;;;;;;;;;;;;;;;;;5036405;28;20425;-75
2022/06/15 02:33:23;;;;;;;;;;;;;;;;;;5055429;28;20328;-75
2022/06/15 02:35:49;;;;;;;;;;;;;;;;;;5074097;28;19916;-74
2022/06/15 02:38:16;;;;;;;;;;;;;;;;;;5074062;28;19916;-75
2022/06/15 02:40:41;;;;;;;;;;;;;;;;;;5074210;28;20390;-76
2022/06/15 02:43:08;;;;;;;;;;;;;;;;;;5057154;28;20049;-74
2022/06/15 02:45:34;;;;;;;;;;;;;;;;;;5057348;28;19948;-74
2022/06/15 02:48:00;;;;;;;;;;;;;;;;;;5073962;28;19916;-75
2022/06/15 02:50:25;;;;;;;;;;;;;;;;;;5056987;28;19966;-76
2022/06/15 02:52:52;;;;;;;;;;;;;;;;;;5056477;28;19938;-75
2022/06/15 02:55:18;;;;;;;;;;;;;;;;;;5076478;28;19915;-76
2022/06/15 02:57:44;;;;;;;;;;;;;;;;;;5061013;28;19938;-74
2022/06/15 03:00:09;;;;;;;;;;;;;;;;;;5057449;28;19913;-76
2022/06/15 03:02:35;;;;;;;;;;;;;;;;;;5066544;28;20009;-74
2022/06/15 03:05:01;;;;;;;;;;;;;;;;;;5044227;28;20451;-75
2022/06/15 03:07:26;;;;;;;;;;;;;;;;;;5078006;28;19908;-75
2022/06/15 03:09:54;;;;;;;;;;;;;;;;;;5076435;28;19961;-77
2022/06/15 03:12:20;;;;;;;;;;;;;;;;;;5061025;28;20376;-76
2022/06/15 03:14:47;;;;;;;;;;;;;;;;;;5077258;28;19990;-77
2022/06/15 03:17:14;;;;;;;;;;;;;;;;;;5077689;28;19912;-76
2022/06/15 03:19:56;;;;;;;;;;;;;;;;;;5046590;28;19920;-74
2022/06/15 03:22:21;;;;;;;;;;;;;;;;;;5077496;28;20007;-74
2022/06/15 03:24:51;;;;;;;;;;;;;;;;;;5074894;28;20367;-76
2022/06/15 03:27:18;;;;;;;;;;;;;;;;;;5058441;28;19924;-75
2022/06/15 03:29:44;;;;;;;;;;;;;;;;;;5077176;28;19908;-75
2022/06/15 03:32:15;;;;;;;;;;;;;;;;;;5060817;28;19935;-76
2022/06/15 03:34:47;;;;;;;;;;;;;;;;;;5056990;28;20038;-75
2022/06/15 03:37:12;;;;;;;;;;;;;;;;;;5076903;28;20331;-76
2022/06/15 03:39:40;;;;;;;;;;;;;;;;;;5060663;28;19912;-76
2022/06/15 03:42:08;;;;;;;;;;;;;;;;;;5059241;28;19984;-77
2022/06/15 03:44:33;;;;;;;;;;;;;;;;;;5076882;28;20367;-76
2022/06/15 03:47:00;;;;;;;;;;;;;;;;;;5076545;28;19912;-76
2022/06/15 03:49:26;;;;;;;;;;;;;;;;;;5076816;28;20011;-76
2022/06/15 03:51:51;;;;;;;;;;;;;;;;;;5076546;28;20298;-75
2022/06/15 03:54:17;;;;;;;;;;;;;;;;;;5076509;28;19916;-76
2022/06/15 03:56:42;;;;;;;;;;;;;;;;;;5056449;28;20380;-76
2022/06/15 03:59:11;;;;;;;;;;;;;;;;;;5089907;28;19912;-75
2022/06/15 04:01:38;;;;;;;;;;;;;;;;;;5076594;28;19976;-76
2022/06/15 04:04:03;;;;;;;;;;;;;;;;;;5057849;28;20003;-75
2022/06/15 04:06:30;;;;;;;;;;;;;;;;;;5075963;28;19912;-76
2022/06/15 04:08:55;;;;;;;;;;;;;;;;;;5076522;28;19920;-77
2022/06/15 04:14:22;;;;;;;;;;;;;;;;;;5075765;28;19912;-75
2022/06/15 04:16:53;;;;;;;;;;;;;;;;;;5074640;28;19912;-75
2022/06/15 04:19:22;;;;;;;;;;;;;;;;;;5059613;28;19919;-76
2022/06/15 04:21:48;;;;;;;;;;;;;;;;;;5076344;28;19928;-76
2022/06/15 04:24:14;;;;;;;;;;;;;;;;;;5075691;28;20102;-75
2022/06/15 04:26:41;;;;;;;;;;;;;;;;;;5075795;28;19943;-75
2022/06/15 04:29:08;;;;;;;;;;;;;;;;;;5076155;28;19919;-76
2022/06/15 04:31:34;;;;;;;;;;;;;;;;;;5058967;28;19999;-76
2022/06/15 04:33:59;;;;;;;;;;;;;;;;;;5073575;28;19977;-76
2022/06/15 04:36:24;;;;;;;;;;;;;;;;;;5075747;28;19939;-76
2022/06/15 04:38:55;;;;;;;;;;;;;;;;;;5055526;28;20395;-75
2022/06/15 04:41:22;;;;;;;;;;;;;;;;;;5056115;28;19956;-76
2022/06/15 04:43:47;;;;;;;;;;;;;;;;;;5075344;28;19958;-77
2022/06/15 04:46:15;;;;;;;;;;;;;;;;;;5059081;28;19912;-77
2022/06/15 04:48:42;;;;;;;;;;;;;;;;;;5074381;28;19912;-77
2022/06/15 04:51:08;;;;;;;;;;;;;;;;;;5059342;28;19947;-77
2022/06/15 04:53:38;;;;;;;;;;;;;;;;;;5075664;28;19913;-76
2022/06/15 04:56:03;;;;;;;;;;;;;;;;;;5075788;28;20379;-75
2022/06/15 04:58:29;;;;;;;;;;;;;;;;;;5075632;28;19926;-75
2022/06/15 05:00:58;;;;;;;;;;;;;;;;;;5075522;28;19912;-76
2022/06/15 05:03:24;;;;;;;;;;;;;;;;;;5056434;28;19919;-75
2022/06/15 05:05:50;;;;;;;;;;;;;;;;;;5075383;28;19912;-75
2022/06/15 05:08:18;;;;;;;;;;;;;;;;;;5075077;28;20383;-77
2022/06/15 05:10:45;;;;;;;;;;;;;;;;;;5092982;28;19934;-76
2022/06/15 05:13:11;;;;;;;;;;;;;;;;;;5075160;28;20371;-76
2022/06/15 05:15:40;;;;;;;;;;;;;;;;;;5074744;28;19912;-76
2022/06/15 05:18:07;;;;;;;;;;;;;;;;;;5074196;28;20302;-74
2022/06/15 05:20:35;;;;;;;;;;;;;;;;;;5073117;28;20405;-75
2022/06/15 05:23:01;;;;;;;;;;;;;;;;;;5074884;28;19951;-77
2022/06/15 05:25:47;;;;;;;;;;;;;;;;;;5070875;28;19915;-76
2022/06/15 05:28:14;;;;;;;;;;;;;;;;;;5058820;28;19912;-76
2022/06/15 05:30:41;;;;;;;;;;;;;;;;;;5075240;28;19912;-77
2022/06/15 05:33:10;;;;;;;;;;;;;;;;;;5058042;28;19966;-76
2022/06/15 05:35:35;;;;;;;;;;;;;;;;;;5074876;28;19912;-76
2022/06/15 05:38:01;;;;;;;;;;;;;;;;;;5054344;28;19963;-75
2022/06/15 05:40:28;;;;;;;;;;;;;;;;;;5075992;28;19908;-77
2022/06/15 05:42:58;;;;;;;;;;;;;;;;;;5076116;28;19916;-76
2022/06/15 05:45:28;;;;;;;;;;;;;;;;;;5059475;28;20371;-76
2022/06/15 05:47:54;;;;;;;;;;;;;;;;;;5093389;28;19912;-76
2022/06/15 05:50:30;;;;;;;;;;;;;;;;;;5074192;28;19912;-76
2022/06/15 05:53:06;;;;;;;;;;;;;;;;;;5072754;28;19912;-76
2022/06/15 05:55:31;;;;;;;;;;;;;;;;;;5057419;28;19912;-74
2022/06/15 05:57:57;;;;;;;;;;;;;;;;;;5073881;28;19999;-76
2022/06/15 06:00:25;;;;;;;;;;;;;;;;;;5074246;28;19908;-76
2022/06/15 06:02:50;;;;;;;;;;;;;;;;;;5092276;28;20389;-76
2022/06/15 06:05:16;;;;;;;;;;;;;;;;;;5074205;28;19913;-74
2022/06/15 06:07:41;;;;;;;;;;;;;;;;;;5037386;28;20321;-76
2022/06/15 06:10:06;;;;;;;;;;;;;;;;;;5084949;28;19912;-77
2022/06/15 06:12:32;;;;;;;;;;;;;;;;;;5092258;28;20349;-77
2022/06/15 06:14:57;;;;;;;;;;;;;;;;;;5092178;28;19935;-76
2022/06/15 06:17:22;;;;;;;;;;;;;;;;;;5074186;28;20016;-78
2022/06/15 06:19:48;;;;;;;;;;;;;;;;;;5073988;28;20303;-76
2022/06/15 06:22:13;;;;;;;;;;;;;;;;;;5073522;28;19985;-76
2022/06/15 06:24:39;;;;;;;;;;;;;;;;;;5054001;28;19920;-76
2022/06/15 06:27:04;;;;;;;;;;;;;;;;;;5088544;28;19912;-77
2022/06/15 06:29:29;;;;;;;;;;;;;;;;;;5093429;28;19912;-76
2022/06/15 06:31:55;;;;;;;;;;;;;;;;;;5096501;28;19915;-77
2022/06/15 06:34:20;;;;;;;;;;;;;;;;;;5061169;28;20419;-77
2022/06/15 06:36:46;;;;;;;;;;;;;;;;;;5078611;28;19919;-77
2022/06/15 06:39:11;;;;;;;;;;;;;;;;;;5077793;28;20382;-76
2022/06/15 06:41:37;;;;;;;;;;;;;;;;;;5094205;28;19986;-77
2022/06/15 06:44:06;;;;;;;;;;;;;;;;;;5057107;28;19958;-77
2022/06/15 06:46:32;;;;;;;;;;;;;;;;;;5087405;28;19912;-78
2022/06/15 06:48:57;;;;;;;;;;;;;;;;;;5096468;28;19995;-77
2022/06/15 06:51:23;;;;;;;;;;;;;;;;;;5095811;28;20371;-78
2022/06/15 06:53:48;;;;;;;;;;;;;;;;;;5095246;28;19912;-78
2022/06/15 06:56:14;;;;;;;;;;;;;;;;;;5095333;28;19919;-77
2022/06/15 06:58:40;;;;;;;;;;;;;;;;;;5086739;28;20383;-77
2022/06/15 07:01:05;;;;;;;;;;;;;;;;;;5077257;28;19989;-77
2022/06/15 07:03:31;;;;;;;;;;;;;;;;;;5095554;28;19908;-79
2022/06/15 07:05:56;;;;;;;;;;;;;;;;;;5095943;28;20007;-78
2022/06/15 07:08:22;;;;;;;;;;;;;;;;;;5096281;28;19934;-78
2022/06/15 07:10:48;;;;;;;;;;;;;;;;;;5096676;28;19912;-78
2022/06/15 07:13:13;;;;;;;;;;;;;;;;;;5078646;28;19923;-78
2022/06/15 07:15:39;;;;;;;;;;;;;;;;;;5095083;28;20328;-76
2022/06/15 07:18:05;;;;;;;;;;;;;;;;;;5096797;28;19958;-78
2022/06/15 07:20:30;;;;;;;;;;;;;;;;;;5084282;28;19916;-77
2022/06/15 07:22:56;;;;;;;;;;;;;;;;;;5086355;28;19967;-78
2022/06/15 07:25:21;;;;;;;;;;;;;;;;;;5099781;28;19916;-78
2022/06/15 07:27:47;;;;;;;;;;;;;;;;;;5096199;28;20370;-76
2022/06/15 07:30:12;;;;;;;;;;;;;;;;;;5095493;28;19965;-77
2022/06/15 07:32:37;;;;;;;;;;;;;;;;;;5090387;28;19944;-77
2022/06/15 07:35:03;;;;;;;;;;;;;;;;;;5078343;28;19971;-77
2022/06/15 07:37:28;;;;;;;;;;;;;;;;;;5102795;28;19917;-77
2022/06/15 07:39:54;;;;;;;;;;;;;;;;;;5085885;28;19923;-77
2022/06/15 07:42:20;;;;;;;;;;;;;;;;;;5078148;28;19970;-78
2022/06/15 07:44:45;;;;;;;;;;;;;;;;;;5100180;28;19919;-75
2022/06/15 07:49:55;;;;;;;;;;;;;;;;;;5061097;28;19958;-77
2022/06/15 07:52:20;;;;;;;;;;;;;;;;;;5086189;28;20333;-75
2022/06/15 07:54:46;;;;;;;;;;;;;;;;;;5076371;28;20445;-76
2022/06/15 07:57:12;;;;;;;;;;;;;;;;;;5094572;28;19912;-76
2022/06/15 07:59:37;;;;;;;;;;;;;;;;;;5094356;28;19998;-77
2022/06/15 08:02:02;;;;;;;;;;;;;;;;;;5095167;28;19923;-78
2022/06/15 08:04:28;;;;;;;;;;;;;;;;;;5075960;28;20516;-78
2022/06/15 08:06:53;;;;;;;;;;;;;;;;;;5094767;28;19919;-78
2022/06/15 08:09:19;;;;;;;;;;;;;;;;;;5076222;28;19916;-76
2022/06/15 08:12:11;;;;;;;;;;;;;;;;;;5059536;28;19919;-77
2022/06/15 08:14:29;;;;;;;;;;;;;;;;;;5094470;28;19967;-77
2022/06/15 08:16:55;;;;;;;;;;;;;;;;;;5094331;28;20349;-76
2022/06/15 08:19:20;;;;;;;;;;;;;;;;;;5076470;28;20006;-77
2022/06/15 08:21:46;;;;;;;;;;;;;;;;;;5094885;28;19916;-78
2022/06/15 08:24:11;;;;;;;;;;;;;;;;;;5076605;28;20037;-77
2022/06/15 08:26:37;;;;;;;;;;;;;;;;;;5093688;28;20007;-76
2022/06/15 08:29:02;;;;;;;;;;;;;;;;;;5090965;28;20378;-79
2022/06/15 08:31:27;;;;;;;;;;;;;;;;;;5094233;28;19912;-77
2022/06/15 08:33:53;;;;;;;;;;;;;;;;;;5084622;28;20296;-77
2022/06/15 08:36:18;;;;;;;;;;;;;;;;;;5058866;28;19922;-77
2022/06/15 08:38:44;;;;;;;;;;;;;;;;;;5093654;28;20073;-78
2022/06/15 08:41:09;;;;;;;;;;;;;;;;;;5079299;28;20417;-77
2022/06/15 08:43:34;;;;;;;;;;;;;;;;;;5092830;28;19912;-79
2022/06/15 08:46:00;;;;;;;;;;;;;;;;;;5086741;28;19912;-79
2022/06/15 08:48:25;;;;;;;;;;;;;;;;;;5074939;28;19922;-77
2022/06/15 08:50:51;;;;;;;;;;;;;;;;;;5075212;28;19916;-79
2022/06/15 08:53:16;;;;;;;;;;;;;;;;;;5050609;28;20363;-80
2022/06/15 08:55:42;;;;;;;;;;;;;;;;;;5073546;28;20317;-81
2022/06/15 08:58:08;;;;;;;;;;;;;;;;;;5055761;28;19963;-80
2022/06/15 09:00:33;;;;;;;;;;;;;;;;;;5065711;28;19912;-77
2022/06/15 09:02:58;;;;;;;;;;;;;;;;;;5071793;28;19969;-79
2022/06/15 09:05:24;;;;;;;;;;;;;;;;;;5093522;28;20011;-77
2022/06/15 09:07:49;;;;;;;;;;;;;;;;;;5075117;28;20007;-78
2022/06/15 09:10:15;;;;;;;;;;;;;;;;;;5093000;28;20002;-79
2022/06/15 09:12:49;;;;;;;;;;;;;;;;;;5093133;28;20030;-78
2022/06/15 09:15:15;;;;;;;;;;;;;;;;;;5093543;28;20370;-77
2022/06/15 09:17:40;;;;;;;;;;;;;;;;;;5072933;28;19941;-78
2022/06/15 09:20:06;;;;;;;;;;;;;;;;;;5092362;28;19912;-78
2022/06/15 09:22:31;;;;;;;;;;;;;;;;;;5074104;28;20011;-79
2022/06/15 09:24:56;;;;;;;;;;;;;;;;;;5092653;28;19916;-77
2022/06/15 09:27:22;;;;;;;;;;;;;;;;;;5074552;28;19915;-79
2022/06/15 09:29:47;;;;;;;;;;;;;;;;;;5092764;28;19915;-76
2022/06/15 09:32:14;;;;;;;;;;;;;;;;;;5092405;28;19919;-76
2022/06/15 09:34:46;;;;;;;;;;;;;;;;;;5056399;28;19916;-77
2022/06/15 09:37:34;;;;;;;;;;;;;;;;;;5042360;28;20282;-77
2022/06/15 09:40:00;;;;;;;;;;;;;;;;;;5074271;28;19948;-76
2022/06/15 09:42:25;;;;;;;;;;;;;;;;;;5073900;28;19915;-77
2022/06/15 09:44:50;;;;;;;;;;;;;;;;;;5074124;28;19919;-77
2022/06/15 09:47:16;;;;;;;;;;;;;;;;;;5074415;28;19939;-74
2022/06/15 09:49:41;;;;;;;;;;;;;;;;;;5092342;28;19919;-79
2022/06/15 09:52:07;;;;;;;;;;;;;;;;;;5053879;28;19958;-76
2022/06/15 09:54:33;;;;;;;;;;;;;;;;;;5053826;28;19913;-77
2022/06/15 09:56:58;;;;;;;;;;;;;;;;;;5069097;28;19947;-76
2022/06/15 09:59:23;;;;;;;;;;;;;;;;;;5092795;28;19919;-77
2022/06/15 10:01:49;;;;;;;;;;;;;;;;;;5092063;28;20516;-75
2022/06/15 10:04:14;;;;;;;;;;;;;;;;;;5091841;28;19912;-78
2022/06/15 10:06:40;;;;;;;;;;;;;;;;;;5092160;28;19912;-77
2022/06/15 10:09:06;;;;;;;;;;;;;;;;;;5072583;28;19916;-76
2022/06/15 10:11:34;;;;;;;;;;;;;;;;;;5058331;28;20054;-75
2022/06/15 10:13:59;;;;;;;;;;;;;;;;;;5073615;28;19957;-76
2022/06/15 10:16:27;;;;;;;;;;;;;;;;;;5092347;28;19912;-76
2022/06/15 10:18:52;;;;;;;;;;;;;;;;;;5074004;28;19916;-76
2022/06/15 10:21:18;;;;;;;;;;;;;;;;;;5074194;28;20405;-76
2022/06/15 10:23:43;;;;;;;;;;;;;;;;;;5072210;28;19920;-75
2022/06/15 10:26:11;;;;;;;;;;;;;;;;;;5092437;28;19934;-76
2022/06/15 10:28:36;;;;;;;;;;;;;;;;;;5092356;28;19912;-77
2022/06/15 10:31:02;;;;;;;;;;;;;;;;;;5075028;28;20000;-77
2022/06/15 10:33:27;;;;;;;;;;;;;;;;;;5073890;28;19975;-77
2022/06/15 10:35:55;;;;;;;;;;;;;;;;;;5073637;28;19915;-76
2022/06/15 10:38:20;;;;;;;;;;;;;;;;;;5092239;28;19912;-76
2022/06/15 10:40:45;;;;;;;;;;;;;;;;;;5090581;28;20291;-76
2022/06/15 10:43:11;;;;;;;;;;;;;;;;;;5074159;28;20382;-75
2022/06/15 10:45:37;;;;;;;;;;;;;;;;;;5056956;28;19954;-75
2022/06/15 10:48:03;;;;;;;;;;;;;;;;;;5074258;28;19920;-78
2022/06/15 10:50:28;;;;;;;;;;;;;;;;;;5073320;28;19920;-77
2022/06/15 10:52:53;;;;;;;;;;;;;;;;;;5073666;28;19912;-75
2022/06/15 11:03:33;;;;;;;;;;;;;;;;;;5086373;28;20390;-75
2022/06/15 11:05:58;;;;;;;;;;;;;;;;;;5087944;28;19920;-75
2022/06/15 11:08:24;;;;;;;;;;;;;;;;;;5072920;28;19912;-75
2022/06/15 11:10:50;;;;;;;;;;;;;;;;;;5087710;28;19913;-74
2022/06/15 11:13:16;;;;;;;;;;;;;;;;;;5038238;28;20004;-76
2022/06/15 11:18:26;;;;;;;;;;;;;;;;;;5086495;28;19912;-77
2022/06/15 11:20:51;;;;;;;;;;;;;;;;;;5096037;28;19908;-77
2022/06/15 11:23:17;;;;;;;;;;;;;;;;;;5091088;28;20002;-77
2022/06/15 11:25:42;;;;;;;;;;;;;;;;;;5081688;28;19924;-75
2022/06/15 11:28:10;;;;;;;;;;;;;;;;;;5072138;28;20055;-77
2022/06/15 11:30:36;;;;;;;;;;;;;;;;;;5076237;28;19979;-75
2022/06/15 11:33:01;;;;;;;;;;;;;;;;;;5075812;28;19963;-75
2022/06/15 11:35:27;;;;;;;;;;;;;;;;;;5073912;28;19912;-76
2022/06/15 11:37:52;;;;;;;;;;;;;;;;;;5091426;28;19948;-75
2022/06/15 11:40:18;;;;;;;;;;;;;;;;;;5075729;28;19912;-76
2022/06/15 11:42:53;;;;;;;;;;;;;;;;;;5083459;28;20015;-77
2022/06/15 11:45:18;;;;;;;;;;;;;;;;;;5076588;28;19912;-76
2022/06/15 11:47:45;;;;;;;;;;;;;;;;;;5091268;28;19908;-74
2022/06/15 11:50:11;;;;;;;;;;;;;;;;;;5080005;28;20025;-75
2022/06/15 11:52:37;;;;;;;;;;;;;;;;;;5077405;28;19912;-78
2022/06/15 11:55:02;;;;;;;;;;;;;;;;;;5079420;28;19927;-76
2022/06/15 11:57:28;;;;;;;;;;;;;;;;;;5090270;28;20382;-76
2022/06/15 11:59:53;;;;;;;;;;;;;;;;;;5088061;28;20247;-76
2022/06/15 12:02:18;;;;;;;;;;;;;;;;;;5078227;28;19941;-75
2022/06/15 12:04:44;;;;;;;;;;;;;;;;;;5094246;28;20010;-76
2022/06/15 12:07:09;;;;;;;;;;;;;;;;;;5094901;28;19916;-76
2022/06/15 12:09:35;;;;;;;;;;;;;;;;;;5072954;28;19912;-75
2022/06/15 12:14:45;;;;;;;;;;;;;;;;;;5090938;28;20350;-77
2022/06/15 12:17:10;;;;;;;;;;;;;;;;;;5072220;28;19915;-75
2022/06/15 12:19:35;;;;;;;;;;;;;;;;;;5094581;28;20290;-77
2022/06/15 12:22:01;;;;;;;;;;;;;;;;;;5094004;28;19916;-78
2022/06/15 12:24:26;;;;;;;;;;;;;;;;;;5055740;28;19927;-78
2022/06/15 12:26:52;;;;;;;;;;;;;;;;;;5089289;28;19912;-77
2022/06/15 12:29:19;;;;;;;;;;;;;;;;;;5085723;22;19985;-84
2022/06/15 12:31:45;;;;;;;;;;;;;;;;;;5089398;28;20284;-83
2022/06/15 12:34:11;;;;;;;;;;;;;;;;;;5080764;28;20007;-85
2022/06/15 12:36:36;;;;;;;;;;;;;;;;;;5080635;28;19919;-84
2022/06/15 12:39:01;;;;;;;;;;;;;;;;;;5055954;28;19919;-82
2022/06/15 12:44:12;;;;;;;;;;;;;;;;;;5075894;28;20458;-82
2022/06/15 12:46:37;;;;;;;;;;;;;;;;;;5056521;28;20417;-84
2022/06/15 12:49:03;;;;;;;;;;;;;;;;;;5074292;28;19908;-83
2022/06/15 12:51:28;;;;;;;;;;;;;;;;;;5074757;28;20391;-83
2022/06/15 12:53:54;;;;;;;;;;;;;;;;;;5095032;28;19912;-83
2022/06/15 12:56:19;;;;;;;;;;;;;;;;;;5096199;28;20306;-84
2022/06/15 12:58:45;;;;;;;;;;;;;;;;;;5054645;28;19923;-83
2022/06/15 13:01:10;;;;;;;;;;;;;;;;;;5078271;28;19918;-84
2022/06/15 13:03:36;;;;;;;;;;;;;;;;;;5096210;28;19908;-82
2022/06/15 13:06:04;;;;;;;;;;;;;;;;;;5089901;28;19974;-83
2022/06/15 13:08:31;;;;;;;;;;;;;;;;;;5043499;28;19947;-84
2022/06/15 13:10:56;;;;;;;;;;;;;;;;;;5064965;28;19912;-82
2022/06/15 13:13:22;;;;;;;;;;;;;;;;;;5096826;28;19912;-83
2022/06/15 13:15:50;;;;;;;;;;;;;;;;;;5095395;28;20332;-82
2022/06/15 13:18:25;;;;;;;;;;;;;;;;;;5051295;28;20401;-82
2022/06/15 13:20:50;;;;;;;;;;;;;;;;;;5099689;28;20423;-82
2022/06/15 13:23:16;;;;;;;;;;;;;;;;;;5101967;28;20033;-83
2022/06/15 13:25:41;;;;;;;;;;;;;;;;;;5104657;28;19919;-81
2022/06/15 13:28:08;;;;;;;;;;;;;;;;;;5084499;28;22468;-83
2022/06/15 13:30:34;;;;;;;;;;;;;;;;;;5103021;28;19920;-81
2022/06/15 13:32:59;;;;;;;;;;;;;;;;;;5085319;28;19934;-82
2022/06/15 13:35:28;;;;;;;;;;;;;;;;;;5090878;28;20362;-83
2022/06/15 13:38:00;;;;;;;;;;;;;;;;;;5069526;28;19920;-82
2022/06/15 13:40:25;;;;;;;;;;;;;;;;;;5074133;28;19916;-79
2022/06/15 13:42:53;;;;;;;;;;;;;;;;;;5089675;28;20435;-86
2022/06/15 13:45:22;;;;;;;;;;;;;;;;;;5057601;28;20379;-82
2022/06/15 13:47:51;;;;;;;;;;;;;;;;;;5092487;28;19932;-80
2022/06/15 13:50:19;;;;;;;;;;;;;;;;;;5075787;28;19912;-85
2022/06/15 13:52:44;;;;;;;;;;;;;;;;;;5038270;28;20360;-81
2022/06/15 13:55:10;;;;;;;;;;;;;;;;;;5092386;28;19922;-84
2022/06/15 13:57:53;;;;;;;;;;;;;;;;;;5092767;28;20263;-82
2022/06/15 14:00:19;;;;;;;;;;;;;;;;;;5092203;28;19912;-81
2022/06/15 14:02:44;;;;;;;;;;;;;;;;;;5092041;28;19916;-85
2022/06/15 14:05:10;;;;;;;;;;;;;;;;;;5055230;28;19909;-84
2022/06/15 14:07:37;;;;;;;;;;;;;;;;;;5093715;28;20007;-84
2022/06/15 14:10:02;;;;;;;;;;;;;;;;;;5092752;28;19920;-82
2022/06/15 14:12:28;;;;;;;;;;;;;;;;;;5072169;28;20341;-81
2022/06/15 14:14:53;;;;;;;;;;;;;;;;;;5076859;28;19912;-82
2022/06/15 14:17:19;;;;;;;;;;;;;;;;;;5075186;28;19916;-83
2022/06/15 14:19:45;;;;;;;;;;;;;;;;;;5067077;28;20285;-83
2022/06/15 14:22:10;;;;;;;;;;;;;;;;;;5074472;28;20701;-82
2022/06/15 14:24:35;;;;;;;;;;;;;;;;;;5092984;28;19912;-83
2022/06/15 14:27:02;;;;;;;;;;;;;;;;;;5074870;28;19912;-84
2022/06/15 14:29:27;;;;;;;;;;;;;;;;;;5075285;28;19934;-85
2022/06/15 14:32:02;;;;;;;;;;;;;;;;;;5039462;28;20413;-85
2022/06/15 14:34:30;;;;;;;;;;;;;;;;;;5044265;28;19912;-86
2022/06/15 14:36:56;;;;;;;;;;;;;;;;;;5057858;28;19916;-85
2022/06/15 14:39:21;;;;;;;;;;;;;;;;;;5075050;28;20399;-84
2022/06/15 14:41:47;;;;;;;;;;;;;;;;;;5077686;28;19991;-85
2022/06/15 14:44:12;;;;;;;;;;;;;;;;;;5090691;28;20567;-85
2022/06/15 14:46:40;;;;;;;;;;;;;;;;;;5063241;28;19952;-83
2022/06/15 14:49:06;;;;;;;;;;;;;;;;;;5077689;28;19965;-83
2022/06/15 14:51:31;;;;;;;;;;;;;;;;;;5098778;28;19911;-84
2022/06/15 14:53:57;;;;;;;;;;;;;;;;;;5071682;28;19923;-85
2022/06/15 14:56:31;;;;;;;;;;;;;;;;;;5110898;28;19912;-85
2022/06/15 14:58:57;;;;;;;;;;;;;;;;;;5117368;28;20051;-84
2022/06/15 15:01:22;;;;;;;;;;;;;;;;;;5119648;27;19915;-85
2022/06/15 15:03:48;;;;;;;;;;;;;;;;;;5092550;28;19901;-85
2022/06/15 15:06:13;;;;;;;;;;;;;;;;;;5060451;28;19913;-84
2022/06/15 15:08:39;;;;;;;;;;;;;;;;;;5110124;28;19919;-84
2022/06/15 15:11:04;;;;;;;;;;;;;;;;;;5082424;28;20286;-84
2022/06/15 15:13:30;;;;;;;;;;;;;;;;;;5101168;28;20379;-84
2022/06/15 15:15:55;;;;;;;;;;;;;;;;;;5102780;28;19916;-84
2022/06/15 15:18:22;;;;;;;;;;;;;;;;;;5083670;28;20358;-85
2022/06/15 15:20:47;;;;;;;;;;;;;;;;;;5084899;28;19912;-84
2022/06/15 15:23:13;;;;;;;;;;;;;;;;;;5102612;28;19922;-83
2022/06/15 15:25:38;;;;;;;;;;;;;;;;;;5103156;28;19928;-82
2022/06/15 15:39:05;;;;;;;;;;;;;;;;;;4999501;28;20404;-85
2022/06/15 15:41:37;;;;;;;;;;;;;;;;;;5080261;28;19915;-84
2022/06/15 15:44:23;;;;;;;;;;;;;;;;;;5069678;28;19912;-83
2022/06/15 15:46:48;;;;;;;;;;;;;;;;;;5106509;27;19927;-85
2022/06/15 15:49:14;;;;;;;;;;;;;;;;;;5114001;27;19923;-84
2022/06/15 15:51:39;;;;;;;;;;;;;;;;;;5079856;28;19939;-85
2022/06/15 15:54:05;;;;;;;;;;;;;;;;;;5082171;28;19900;-85
2022/06/15 15:56:30;;;;;;;;;;;;;;;;;;5114076;28;19920;-85
2022/06/15 15:58:56;;;;;;;;;;;;;;;;;;5076327;28;19976;-85
2022/06/15 16:01:21;;;;;;;;;;;;;;;;;;5092312;28;19919;-86
2022/06/15 16:03:46;;;;;;;;;;;;;;;;;;5084388;28;19912;-84
2022/06/15 16:06:12;;;;;;;;;;;;;;;;;;5079791;28;19923;-85
2022/06/15 16:08:41;;;;;;;;;;;;;;;;;;5094794;28;19916;-84
2022/06/15 16:11:07;;;;;;;;;;;;;;;;;;5040427;28;19916;-85
2022/06/15 16:13:32;;;;;;;;;;;;;;;;;;5075942;28;19912;-86
2022/06/15 16:15:58;;;;;;;;;;;;;;;;;;5076886;28;19999;-85
2022/06/15 16:18:23;;;;;;;;;;;;;;;;;;5056829;28;19999;-86
2022/06/15 16:20:49;;;;;;;;;;;;;;;;;;5057652;28;19958;-87
2022/06/15 16:23:14;;;;;;;;;;;;;;;;;;5095376;28;19916;-85
2022/06/15 16:25:40;;;;;;;;;;;;;;;;;;5096758;28;19919;-85
2022/06/15 16:28:05;;;;;;;;;;;;;;;;;;5097128;28;19919;-85
2022/06/15 16:30:33;;;;;;;;;;;;;;;;;;5060101;28;19923;-84
2022/06/15 16:32:58;;;;;;;;;;;;;;;;;;5095441;28;19957;-84
2022/06/15 16:35:24;;;;;;;;;;;;;;;;;;5097079;28;20002;-84
2022/06/15 16:37:53;;;;;;;;;;;;;;;;;;5057128;28;19960;-84
2022/06/15 16:40:18;;;;;;;;;;;;;;;;;;5088117;28;19943;-85
2022/06/15 16:42:44;;;;;;;;;;;;;;;;;;5094535;28;19916;-85
2022/06/15 16:45:09;;;;;;;;;;;;;;;;;;5075930;28;19908;-85
2022/06/15 16:47:35;;;;;;;;;;;;;;;;;;5092685;28;19919;-84
2022/06/15 16:50:02;;;;;;;;;;;;;;;;;;5059999;28;19916;-86
2022/06/15 16:52:27;;;;;;;;;;;;;;;;;;5077934;28;19912;-85
2022/06/15 16:54:52;;;;;;;;;;;;;;;;;;5076842;28;20374;-85
2022/06/15 16:57:20;;;;;;;;;;;;;;;;;;5094627;28;20713;-85
2022/06/15 16:59:46;;;;;;;;;;;;;;;;;;5075937;28;20422;-85
2022/06/15 17:02:11;;;;;;;;;;;;;;;;;;5094594;28;19920;-85
2022/06/15 17:04:37;;;;;;;;;;;;;;;;;;5075526;28;20365;-86
2022/06/15 17:07:03;;;;;;;;;;;;;;;;;;5092176;28;20371;-86
2022/06/15 17:09:29;;;;;;;;;;;;;;;;;;5058900;28;19908;-84
2022/06/15 17:11:54;;;;;;;;;;;;;;;;;;5093756;28;20065;-85
2022/06/15 17:14:19;;;;;;;;;;;;;;;;;;5092675;28;19911;-85